UAL73 SKBO-MKJS
Flight info
| Callsign | UAL73 |
|---|---|
| Flight time | N/A |
| Altitude | 40000 |
| Route | OSUSU4R GIKPU DCT MGN UW3 BAQ DCT KILER DCT TABRI LENAR7 |
| Aircraft | B77W/H-SDE1E2E3FGHIJ2J3J4J5M1RWXY/LB1D1 |
Departure
| Time | 2026-05-07 00:37 |
|---|---|
| Airport | El Dorado International Airport (SKBO) |
Arrival
| Time | N/A |
|---|---|
| Airport | Sangster International Airport (MKJS) |
| Time | Latitude | Longitude | Altitude | Speed | Heading |
|---|---|---|---|---|---|
| 2026-05-06 23:53 | 4.70054 | -74.14438 | 8380 ft | 0 kts | 59° |
| 2026-05-07 00:23 | 4.70052 | -74.14441 | 8380 ft | 1 kts | 46° |
| 2026-05-07 00:23 | 4.70043 | -74.14448 | 8380 ft | 2 kts | 30° |
| 2026-05-07 00:24 | 4.70032 | -74.14455 | 8380 ft | 2 kts | 51° |
| 2026-05-07 00:24 | 4.70025 | -74.14465 | 8380 ft | 2 kts | 62° |
| 2026-05-07 00:24 | 4.70019 | -74.14476 | 8380 ft | 2 kts | 60° |
| 2026-05-07 00:24 | 4.70013 | -74.14487 | 8381 ft | 2 kts | 58° |
| 2026-05-07 00:25 | 4.70006 | -74.14498 | 8381 ft | 2 kts | 59° |
| 2026-05-07 00:25 | 4.70000 | -74.14508 | 8381 ft | 2 kts | 59° |
| 2026-05-07 00:25 | 4.69994 | -74.14518 | 8380 ft | 2 kts | 59° |
| 2026-05-07 00:25 | 4.69987 | -74.14531 | 8380 ft | 2 kts | 59° |
| 2026-05-07 00:26 | 4.69982 | -74.14539 | 8380 ft | 0 kts | 59° |
| 2026-05-07 00:28 | 4.69987 | -74.14534 | 8380 ft | 2 kts | 30° |
| 2026-05-07 00:28 | 4.70011 | -74.14542 | 8380 ft | 8 kts | 318° |
| 2026-05-07 00:28 | 4.70019 | -74.14601 | 8378 ft | 14 kts | 221° |
| 2026-05-07 00:29 | 4.69944 | -74.14663 | 8377 ft | 20 kts | 218° |
| 2026-05-07 00:29 | 4.69847 | -74.14738 | 8375 ft | 23 kts | 218° |
| 2026-05-07 00:30 | 4.69822 | -74.14932 | 8373 ft | 15 kts | 320° |
| 2026-05-07 00:30 | 4.69907 | -74.14976 | 8375 ft | 11 kts | 339° |
| 2026-05-07 00:30 | 4.69943 | -74.14990 | 8375 ft | 3 kts | 338° |
| 2026-05-07 00:30 | 4.69986 | -74.15030 | 8376 ft | 15 kts | 315° |
| 2026-05-07 00:31 | 4.70061 | -74.15120 | 8377 ft | 22 kts | 305° |
| 2026-05-07 00:31 | 4.70154 | -74.15241 | 8377 ft | 29 kts | 308° |
| 2026-05-07 00:31 | 4.70275 | -74.15399 | 8376 ft | 36 kts | 306° |
| 2026-05-07 00:31 | 4.70428 | -74.15597 | 8374 ft | 44 kts | 308° |
| 2026-05-07 00:32 | 4.70617 | -74.15824 | 8366 ft | 51 kts | 311° |
| 2026-05-07 00:32 | 4.70774 | -74.16034 | 8363 ft | 42 kts | 308° |
| 2026-05-07 00:32 | 4.70941 | -74.16257 | 8361 ft | 45 kts | 307° |
| 2026-05-07 00:32 | 4.71120 | -74.16490 | 8360 ft | 47 kts | 307° |
| 2026-05-07 00:33 | 4.71237 | -74.16646 | 8362 ft | 23 kts | 306° |
| 2026-05-07 00:33 | 4.71304 | -74.16770 | 8363 ft | 20 kts | 262° |
| 2026-05-07 00:33 | 4.71229 | -74.16838 | 8361 ft | 18 kts | 213° |
| 2026-05-07 00:33 | 4.71217 | -74.16846 | 8361 ft | 0 kts | 213° |
| 2026-05-07 00:34 | 4.71211 | -74.16850 | 8361 ft | 0 kts | 213° |
| 2026-05-07 00:34 | 4.71199 | -74.16857 | 8361 ft | 5 kts | 213° |
| 2026-05-07 00:35 | 4.71151 | -74.16887 | 8361 ft | 13 kts | 204° |
| 2026-05-07 00:35 | 4.71058 | -74.16888 | 8360 ft | 19 kts | 160° |
| 2026-05-07 00:35 | 4.70999 | -74.16844 | 8359 ft | 0 kts | 127° |
| 2026-05-07 00:35 | 4.70955 | -74.16787 | 8359 ft | 39 kts | 127° |
| 2026-05-07 00:36 | 4.70712 | -74.16462 | 8359 ft | 95 kts | 126° |
| 2026-05-07 00:36 | 4.70272 | -74.15862 | 8369 ft | 143 kts | 131° |
| 2026-05-07 00:36 | 4.69682 | -74.15119 | 8426 ft | 172 kts | 124° |
| 2026-05-07 00:37 | 4.68436 | -74.13432 | 9033 ft | 194 kts | 126° |
| 2026-05-07 00:37 | 4.67805 | -74.12573 | 9564 ft | 196 kts | 123° |
| 2026-05-07 00:37 | 4.67350 | -74.11547 | 10092 ft | 198 kts | 99° |
| 2026-05-07 00:37 | 4.67367 | -74.10308 | 10413 ft | 217 kts | 74° |
| 2026-05-07 00:38 | 4.68007 | -74.09129 | 10688 ft | 239 kts | 45° |
| 2026-05-07 00:38 | 4.69278 | -74.08388 | 11117 ft | 258 kts | 15° |
| 2026-05-07 00:38 | 4.70812 | -74.08333 | 11915 ft | 261 kts | 356° |
| 2026-05-07 00:38 | 4.72382 | -74.08410 | 12583 ft | 263 kts | 11° |
| 2026-05-07 00:39 | 4.73794 | -74.08128 | 13206 ft | 263 kts | 19° |
| 2026-05-07 00:39 | 4.75358 | -74.07639 | 14082 ft | 259 kts | 22° |
| 2026-05-07 00:39 | 4.76848 | -74.07127 | 14816 ft | 260 kts | 23° |
| 2026-05-07 00:39 | 4.78364 | -74.06599 | 15474 ft | 263 kts | 23° |
| 2026-05-07 00:40 | 4.79912 | -74.06068 | 16004 ft | 273 kts | 22° |
| 2026-05-07 00:40 | 4.81550 | -74.05516 | 16338 ft | 291 kts | 22° |
| 2026-05-07 00:40 | 4.83273 | -74.04936 | 16668 ft | 308 kts | 22° |
| 2026-05-07 00:40 | 4.85127 | -74.04311 | 17034 ft | 324 kts | 22° |
| 2026-05-07 00:41 | 4.87072 | -74.03653 | 17383 ft | 341 kts | 21° |
| 2026-05-07 00:41 | 4.89135 | -74.02953 | 17478 ft | 366 kts | 21° |
| 2026-05-07 00:41 | 4.91353 | -74.02200 | 17485 ft | 392 kts | 21° |
| 2026-05-07 00:41 | 4.93717 | -74.01397 | 17490 ft | 417 kts | 21° |
| 2026-05-07 00:42 | 4.96196 | -74.00557 | 17485 ft | 440 kts | 21° |
| 2026-05-07 00:42 | 4.98826 | -73.99665 | 17484 ft | 461 kts | 21° |
| 2026-05-07 00:42 | 5.01595 | -73.98727 | 17507 ft | 481 kts | 21° |
| 2026-05-07 00:42 | 5.04565 | -73.97819 | 17555 ft | 501 kts | 17° |
| 2026-05-07 00:43 | 5.07727 | -73.97045 | 17567 ft | 520 kts | 15° |
| 2026-05-07 00:43 | 5.10994 | -73.96263 | 17574 ft | 537 kts | 15° |
| 2026-05-07 00:43 | 5.14366 | -73.95449 | 17593 ft | 548 kts | 15° |
| 2026-05-07 00:43 | 5.17776 | -73.94620 | 17610 ft | 552 kts | 15° |
| 2026-05-07 00:44 | 5.21211 | -73.93781 | 17442 ft | 551 kts | 15° |
| 2026-05-07 00:44 | 5.24526 | -73.92975 | 13532 ft | 592 kts | 15° |
| 2026-05-07 00:44 | 5.25524 | -73.92749 | 9776 ft | 0 kts | 11° |
| 2026-05-07 00:44 | 5.25526 | -73.92749 | 9775 ft | 0 kts | 11° |
| 2026-05-07 00:45 | 5.25527 | -73.92750 | 9774 ft | 0 kts | 10° |
| 2026-05-07 00:45 | 5.25529 | -73.92750 | 9773 ft | 0 kts | 10° |
| 2026-05-07 00:45 | 5.25530 | -73.92750 | 9772 ft | 0 kts | 9° |
| 2026-05-07 00:45 | 5.25532 | -73.92751 | 9771 ft | 0 kts | 9° |
| 2026-05-07 00:46 | 5.25533 | -73.92751 | 9769 ft | 0 kts | 9° |
| 2026-05-07 00:46 | 5.25535 | -73.92751 | 9768 ft | 0 kts | 8° |
| 2026-05-07 00:46 | 5.25536 | -73.92752 | 9767 ft | 0 kts | 8° |
| 2026-05-07 00:46 | 5.25538 | -73.92752 | 9766 ft | 0 kts | 8° |
| 2026-05-07 00:47 | 5.25539 | -73.92752 | 9765 ft | 0 kts | 7° |
| 2026-05-07 00:47 | 5.25540 | -73.92753 | 9764 ft | 0 kts | 7° |